createdAt,value
2023-11-30T00:01:16.644Z,10.53
2023-11-30T00:03:44.315Z,9.67
2023-11-30T00:06:11.877Z,9.00
2023-11-30T00:08:38.853Z,9.20
2023-11-30T00:11:08.903Z,8.30
2023-11-30T00:13:35.970Z,7.00
2023-11-30T00:16:02.965Z,5.43
2023-11-30T00:18:30.639Z,5.67
2023-11-30T00:20:57.704Z,5.37
2023-11-30T00:23:24.703Z,4.53
2023-11-30T00:25:51.687Z,5.57
2023-11-30T00:28:18.757Z,5.23
2023-11-30T00:30:46.009Z,5.27
2023-11-30T00:33:13.086Z,5.60
2023-11-30T00:35:40.067Z,5.07
2023-11-30T00:38:07.071Z,5.50
2023-11-30T00:40:34.153Z,5.40
2023-11-30T00:43:01.239Z,5.10
2023-11-30T00:45:28.254Z,5.30
2023-11-30T00:47:55.373Z,5.43
2023-11-30T00:50:22.565Z,5.30
2023-11-30T00:52:49.755Z,4.70
2023-11-30T00:55:16.930Z,5.00
2023-11-30T00:57:43.898Z,4.47
2023-11-30T01:00:11.873Z,5.03
2023-11-30T01:02:41.503Z,5.40
2023-11-30T01:05:09.519Z,6.23
2023-11-30T01:07:39.718Z,5.00
2023-11-30T01:10:07.929Z,5.90
2023-11-30T01:12:35.012Z,6.13
2023-11-30T01:15:02.408Z,6.00
2023-11-30T01:17:29.596Z,5.20
2023-11-30T01:19:56.664Z,5.10
2023-11-30T01:22:23.710Z,5.50
2023-11-30T01:24:50.808Z,8.70
2023-11-30T01:27:17.940Z,6.97
2023-11-30T01:29:45.186Z,6.90
2023-11-30T01:32:12.231Z,7.67
2023-11-30T01:34:39.586Z,9.27
2023-11-30T01:37:07.189Z,7.27
2023-11-30T01:39:34.157Z,7.00
2023-11-30T01:42:03.817Z,7.37
2023-11-30T01:44:33.180Z,6.37
2023-11-30T01:47:01.000Z,5.33
2023-11-30T01:49:28.225Z,6.03
2023-11-30T01:51:55.383Z,6.30
2023-11-30T01:54:22.496Z,7.50
2023-11-30T01:56:50.119Z,8.77
2023-11-30T01:59:17.885Z,10.43
2023-11-30T02:01:45.321Z,9.93
2023-11-30T02:04:17.011Z,9.57
2023-11-30T02:06:47.938Z,9.43
2023-11-30T02:09:15.305Z,9.80
2023-11-30T02:11:42.885Z,10.80
2023-11-30T02:14:09.881Z,11.93
2023-11-30T02:16:37.349Z,11.63
2023-11-30T02:19:04.485Z,11.40
2023-11-30T02:21:31.759Z,10.53
2023-11-30T02:23:58.773Z,11.00
2023-11-30T02:26:25.788Z,10.20
2023-11-30T02:28:53.007Z,9.77
2023-11-30T02:31:20.111Z,8.00
2023-11-30T02:33:47.222Z,7.50
2023-11-30T02:36:14.517Z,6.90
2023-11-30T02:38:41.583Z,4.97
2023-11-30T02:41:09.215Z,4.97
2023-11-30T02:43:36.213Z,4.93
2023-11-30T02:46:03.363Z,5.50
2023-11-30T02:48:30.455Z,7.23
2023-11-30T02:50:57.924Z,8.17
2023-11-30T02:53:25.010Z,7.20
2023-11-30T02:55:52.117Z,6.90
2023-11-30T02:58:19.225Z,6.20
2023-11-30T03:00:47.538Z,6.23
2023-11-30T03:03:14.803Z,5.73
2023-11-30T03:05:41.871Z,5.47
2023-11-30T03:08:08.890Z,5.57
2023-11-30T03:10:36.028Z,4.60
2023-11-30T03:13:03.105Z,3.70
2023-11-30T03:15:32.065Z,4.00
2023-11-30T03:17:59.190Z,3.70
2023-11-30T03:20:26.395Z,4.13
2023-11-30T03:22:53.447Z,3.90
2023-11-30T03:25:20.544Z,4.33
2023-11-30T03:27:47.582Z,4.40
2023-11-30T03:30:14.793Z,4.80
2023-11-30T03:32:41.969Z,6.67
2023-11-30T03:35:09.348Z,10.13
2023-11-30T03:37:41.446Z,9.87
2023-11-30T03:40:09.318Z,10.20
2023-11-30T03:42:36.489Z,7.30
2023-11-30T03:45:03.800Z,7.27
2023-11-30T03:47:30.892Z,7.33
2023-11-30T03:49:57.925Z,8.30
2023-11-30T03:52:25.094Z,6.93
2023-11-30T03:54:53.004Z,6.70
2023-11-30T03:57:20.142Z,7.23
2023-11-30T03:59:47.246Z,6.30
2023-11-30T04:02:14.296Z,8.07
2023-11-30T04:04:42.878Z,9.67
2023-11-30T04:07:09.988Z,10.73
2023-11-30T04:09:38.985Z,11.10
2023-11-30T04:12:06.575Z,12.10
2023-11-30T04:14:33.644Z,7.53
2023-11-30T04:17:04.290Z,8.87
2023-11-30T04:19:31.956Z,8.87
2023-11-30T04:21:59.013Z,7.87
2023-11-30T04:24:26.178Z,7.90
2023-11-30T04:26:54.816Z,8.60
2023-11-30T04:29:21.935Z,7.97
2023-11-30T04:31:51.496Z,8.30
2023-11-30T04:34:19.881Z,6.90
2023-11-30T04:36:47.641Z,6.17
2023-11-30T04:39:14.684Z,6.60
2023-11-30T04:41:42.233Z,6.63
2023-11-30T04:44:09.343Z,7.47
2023-11-30T04:46:36.808Z,10.20
2023-11-30T04:49:06.264Z,8.83
2023-11-30T04:51:34.012Z,8.43
2023-11-30T04:54:01.072Z,7.60
2023-11-30T04:56:28.343Z,8.67
2023-11-30T04:58:55.394Z,8.10
2023-11-30T05:01:22.509Z,7.43
2023-11-30T05:03:49.769Z,6.60
2023-11-30T05:06:17.031Z,6.70
2023-11-30T05:08:44.024Z,6.77
2023-11-30T05:11:11.111Z,9.27
2023-11-30T05:13:38.235Z,9.07
2023-11-30T05:16:06.078Z,9.43
2023-11-30T05:18:33.207Z,10.83
2023-11-30T05:21:00.868Z,11.60
2023-11-30T05:23:27.848Z,13.77
2023-11-30T05:25:54.941Z,15.13
2023-11-30T05:28:23.107Z,8.73
2023-11-30T05:30:50.585Z,10.43
2023-11-30T05:33:18.033Z,9.30
2023-11-30T05:35:45.520Z,6.87
2023-11-30T05:38:15.482Z,4.70
2023-11-30T05:40:42.713Z,3.67
2023-11-30T05:43:09.921Z,3.90
2023-11-30T05:45:37.061Z,3.83
2023-11-30T05:48:04.863Z,3.60
2023-11-30T05:50:31.899Z,4.17
2023-11-30T05:52:58.862Z,3.87
2023-11-30T05:55:26.862Z,3.50
2023-11-30T05:57:53.987Z,4.00
2023-11-30T06:00:23.264Z,3.67
2023-11-30T06:02:50.365Z,3.70
2023-11-30T06:05:18.479Z,3.63
2023-11-30T06:07:46.157Z,4.33
2023-11-30T06:10:15.213Z,3.67
2023-11-30T06:12:42.599Z,3.90
2023-11-30T06:15:11.068Z,4.57
2023-11-30T06:17:38.265Z,4.70
2023-11-30T06:20:08.795Z,5.10
2023-11-30T06:22:37.641Z,4.23
2023-11-30T06:25:06.729Z,4.77
2023-11-30T06:27:33.926Z,4.77
2023-11-30T06:30:01.129Z,4.80
2023-11-30T06:32:28.174Z,5.30
2023-11-30T06:34:55.192Z,5.60
2023-11-30T06:37:22.325Z,6.43
2023-11-30T06:39:49.447Z,3.97
2023-11-30T06:42:16.545Z,4.43
2023-11-30T06:44:46.550Z,4.67
2023-11-30T06:47:13.716Z,4.17
2023-11-30T06:49:40.774Z,5.00
2023-11-30T06:52:07.888Z,8.10
2023-11-30T06:54:34.906Z,10.20
2023-11-30T06:57:02.183Z,11.13
2023-11-30T06:59:31.309Z,10.53
2023-11-30T07:01:59.737Z,11.33
2023-11-30T07:04:29.492Z,13.37
2023-11-30T07:06:57.263Z,11.40
2023-11-30T07:09:24.287Z,9.67
2023-11-30T07:11:51.640Z,10.97
2023-11-30T07:14:18.674Z,12.27
2023-11-30T07:16:45.732Z,11.27
2023-11-30T07:19:14.658Z,11.37
2023-11-30T07:21:41.786Z,9.20
2023-11-30T07:24:11.529Z,10.73
2023-11-30T07:26:40.328Z,10.60
2023-11-30T07:29:07.452Z,9.33
2023-11-30T07:31:35.795Z,9.27
2023-11-30T07:34:04.244Z,9.40
2023-11-30T07:36:31.479Z,9.83
2023-11-30T07:38:58.704Z,8.87
2023-11-30T07:41:25.780Z,8.23
2023-11-30T07:43:52.895Z,7.23
2023-11-30T07:46:20.775Z,8.47
2023-11-30T07:48:48.115Z,7.80
2023-11-30T07:51:15.297Z,8.30
2023-11-30T07:53:42.434Z,8.00
2023-11-30T07:56:11.426Z,7.00
2023-11-30T07:58:38.616Z,8.37
2023-11-30T08:01:06.625Z,7.30
2023-11-30T08:03:34.379Z,8.03
2023-11-30T08:06:02.196Z,8.80
2023-11-30T08:08:29.353Z,8.90
2023-11-30T08:10:57.147Z,8.33
2023-11-30T08:13:25.490Z,8.93
2023-11-30T08:15:52.641Z,9.07
2023-11-30T08:18:25.516Z,8.40
2023-11-30T08:20:55.553Z,9.27
2023-11-30T08:23:23.340Z,8.03
2023-11-30T08:25:50.968Z,7.87
2023-11-30T08:28:18.206Z,8.80
2023-11-30T08:30:45.498Z,7.00
2023-11-30T08:33:13.037Z,7.40
2023-11-30T08:35:41.248Z,8.63
2023-11-30T08:38:10.453Z,7.93
2023-11-30T08:40:37.611Z,8.17
2023-11-30T08:43:04.774Z,8.03
2023-11-30T08:45:33.534Z,9.37
2023-11-30T08:48:00.768Z,8.27
2023-11-30T08:50:28.122Z,7.07
2023-11-30T08:52:55.164Z,8.10
2023-11-30T08:55:22.324Z,8.27
2023-11-30T08:57:49.965Z,15.73
2023-11-30T09:00:20.570Z,20.63
2023-11-30T09:02:49.643Z,7.90
2023-11-30T09:05:16.954Z,7.17
2023-11-30T09:07:44.067Z,6.70
2023-11-30T09:10:12.120Z,6.33
2023-11-30T09:12:39.440Z,7.17
2023-11-30T09:15:10.921Z,6.53
2023-11-30T09:17:38.099Z,7.10
2023-11-30T09:20:09.322Z,6.63
2023-11-30T09:22:37.072Z,8.47
2023-11-30T09:25:05.015Z,8.43
2023-11-30T09:27:37.310Z,8.57
2023-11-30T09:30:14.792Z,6.70
2023-11-30T09:32:45.156Z,5.43
2023-11-30T09:35:13.043Z,7.07
2023-11-30T09:37:40.478Z,7.00
2023-11-30T09:40:14.512Z,8.97
2023-11-30T09:42:42.120Z,8.43
2023-11-30T09:45:10.408Z,8.00
2023-11-30T09:47:38.134Z,7.50
2023-11-30T09:50:07.261Z,7.93
2023-11-30T09:52:36.085Z,7.70
2023-11-30T09:55:12.679Z,7.20
2023-11-30T09:57:42.232Z,7.00
2023-11-30T10:00:12.881Z,6.63
2023-11-30T10:02:40.143Z,7.57
2023-11-30T10:05:10.692Z,8.07
2023-11-30T10:07:39.675Z,7.97
2023-11-30T10:10:10.289Z,8.27
2023-11-30T10:12:37.475Z,7.93
2023-11-30T10:15:06.210Z,8.23
2023-11-30T10:17:33.549Z,8.60
2023-11-30T10:20:00.866Z,8.03
2023-11-30T10:22:28.074Z,7.57
2023-11-30T10:24:55.128Z,7.47
2023-11-30T10:27:25.579Z,7.90
2023-11-30T10:30:01.562Z,8.73
2023-11-30T10:32:28.776Z,9.27
2023-11-30T10:35:01.153Z,7.70
2023-11-30T10:37:34.410Z,9.00
2023-11-30T10:40:09.721Z,7.80
2023-11-30T10:42:37.575Z,6.40
2023-11-30T10:45:08.016Z,6.17
2023-11-30T10:47:40.959Z,5.83
2023-11-30T10:50:13.682Z,6.83
2023-11-30T10:52:44.768Z,6.80
2023-11-30T10:55:15.497Z,8.23
2023-11-30T10:57:45.304Z,7.13
2023-11-30T11:00:23.764Z,7.27
2023-11-30T11:02:52.345Z,6.97
2023-11-30T11:05:22.037Z,6.40
2023-11-30T11:07:52.670Z,6.93
2023-11-30T11:10:25.980Z,7.30
2023-11-30T11:12:54.020Z,6.83
2023-11-30T11:15:31.506Z,6.67
2023-11-30T11:18:07.318Z,5.50
2023-11-30T11:20:37.989Z,4.37
2023-11-30T11:23:05.152Z,3.97
2023-11-30T11:25:44.850Z,3.30
2023-11-30T11:28:12.941Z,4.40
2023-11-30T11:30:49.245Z,4.60
2023-11-30T11:33:19.152Z,4.60
2023-11-30T11:35:47.577Z,5.07
2023-11-30T11:38:15.171Z,4.80
2023-11-30T11:41:02.726Z,4.60
2023-11-30T11:43:30.007Z,5.07
2023-11-30T11:45:57.696Z,4.90
2023-11-30T11:48:25.116Z,4.67
2023-11-30T11:51:00.438Z,4.70
2023-11-30T11:53:28.026Z,5.00
2023-11-30T11:56:04.330Z,4.90
2023-11-30T11:58:31.772Z,4.60
2023-11-30T12:00:59.646Z,5.10
2023-11-30T12:03:33.329Z,4.57
2023-11-30T12:06:00.644Z,7.03
2023-11-30T12:08:31.929Z,13.73
2023-11-30T12:11:01.144Z,3.90
2023-11-30T12:13:30.312Z,3.80
2023-11-30T12:15:58.169Z,3.80
2023-11-30T12:18:28.599Z,3.93
2023-11-30T12:20:56.015Z,3.93
2023-11-30T12:23:24.790Z,4.50
2023-11-30T12:25:56.442Z,4.23
2023-11-30T12:28:25.281Z,3.60
2023-11-30T12:30:53.362Z,6.33
2023-11-30T12:33:22.929Z,3.17
2023-11-30T12:35:53.796Z,3.40
2023-11-30T12:38:21.514Z,3.20
2023-11-30T12:40:49.358Z,3.22
2023-11-30T12:43:18.663Z,3.85
2023-11-30T12:45:47.215Z,3.30
2023-11-30T12:48:16.319Z,2.75
2023-11-30T12:50:48.355Z,3.05
2023-11-30T12:53:18.918Z,4.00
2023-11-30T12:55:46.700Z,4.43
2023-11-30T12:58:14.187Z,6.40
2023-11-30T13:00:42.936Z,4.90
2023-11-30T13:03:10.619Z,3.38
2023-11-30T13:05:38.318Z,3.78
2023-11-30T13:08:06.600Z,3.72
2023-11-30T13:10:34.258Z,3.97
2023-11-30T13:13:02.811Z,3.58
2023-11-30T13:15:30.191Z,3.53
2023-11-30T13:17:57.490Z,3.85
2023-11-30T13:20:25.879Z,5.10
2023-11-30T13:22:53.519Z,3.97
2023-11-30T13:25:22.259Z,5.88
2023-11-30T13:27:51.141Z,4.53
2023-11-30T13:30:19.733Z,3.00
2023-11-30T13:32:47.924Z,2.90
2023-11-30T13:35:15.949Z,2.90
2023-11-30T13:37:43.417Z,3.70
2023-11-30T13:40:12.236Z,3.43
2023-11-30T13:42:42.280Z,3.50
2023-11-30T13:45:10.736Z,3.63
2023-11-30T13:47:49.077Z,5.20
2023-11-30T13:50:26.267Z,6.57
2023-11-30T13:53:03.524Z,7.20
2023-11-30T13:55:31.386Z,5.63
2023-11-30T13:58:00.527Z,5.13
2023-11-30T14:00:31.041Z,4.50
2023-11-30T14:03:01.325Z,4.30
2023-11-30T14:05:31.297Z,5.37
2023-11-30T14:08:01.902Z,4.43
2023-11-30T14:10:31.543Z,4.43
2023-11-30T14:15:42.183Z,8.10
2023-11-30T14:18:12.290Z,10.07
2023-11-30T14:20:42.143Z,15.03
2023-11-30T14:23:10.235Z,9.13
2023-11-30T14:25:41.574Z,6.67
2023-11-30T14:28:13.528Z,8.87
2023-11-30T14:30:42.040Z,7.90
2023-11-30T14:33:13.189Z,9.07
2023-11-30T14:35:41.869Z,10.23
2023-11-30T14:38:09.377Z,11.50
2023-11-30T14:40:37.161Z,9.60
2023-11-30T14:43:04.388Z,8.97
2023-11-30T14:45:32.588Z,9.20
2023-11-30T14:48:03.065Z,7.10
2023-11-30T14:50:39.024Z,6.50
2023-11-30T14:53:07.594Z,6.50
2023-11-30T14:55:39.618Z,8.63
2023-11-30T14:58:08.429Z,9.33
2023-11-30T15:00:39.643Z,24.73
2023-11-30T15:03:10.791Z,27.23
2023-11-30T15:05:40.169Z,39.73
2023-11-30T15:08:08.236Z,38.43
2023-11-30T15:10:38.735Z,18.47
2023-11-30T15:13:05.995Z,18.07
2023-11-30T15:15:34.101Z,19.23
2023-11-30T15:18:01.854Z,18.17
2023-11-30T15:20:31.096Z,18.30
2023-11-30T15:22:58.521Z,20.73
2023-11-30T15:25:27.339Z,28.60
2023-11-30T15:27:54.684Z,17.73
2023-11-30T15:30:22.285Z,14.10
2023-11-30T15:32:49.528Z,29.53
2023-11-30T15:35:17.043Z,42.57
2023-11-30T15:37:51.220Z,45.37
2023-11-30T15:40:20.829Z,51.33
2023-11-30T15:42:51.936Z,44.07
2023-11-30T15:45:23.512Z,39.50
2023-11-30T15:47:52.621Z,45.67
2023-11-30T15:50:23.329Z,61.90
2023-11-30T15:52:52.615Z,54.73
2023-11-30T15:55:20.489Z,42.90
2023-11-30T15:57:48.104Z,41.60
2023-11-30T16:00:16.223Z,54.60
2023-11-30T16:02:46.766Z,75.17
2023-11-30T16:05:15.146Z,77.23
2023-11-30T16:07:43.176Z,90.93
2023-11-30T16:10:11.388Z,70.37
2023-11-30T16:12:39.297Z,122.63
2023-11-30T16:15:10.937Z,89.87
2023-11-30T16:17:39.736Z,54.00
2023-11-30T16:20:13.274Z,31.67
2023-11-30T16:22:46.789Z,48.87
2023-11-30T16:25:16.526Z,106.17
2023-11-30T16:27:44.225Z,41.80
2023-11-30T16:30:17.604Z,34.60
2023-11-30T16:32:45.922Z,25.80
2023-11-30T16:35:14.817Z,32.80
2023-11-30T16:37:42.251Z,34.67
2023-11-30T16:40:12.369Z,29.93
2023-11-30T16:42:43.541Z,29.43
2023-11-30T16:45:11.119Z,27.47
2023-11-30T16:47:39.456Z,25.43
2023-11-30T16:50:14.916Z,21.63
2023-11-30T16:52:49.315Z,36.77
2023-11-30T16:55:20.834Z,21.67
2023-11-30T16:57:49.759Z,17.33
2023-11-30T17:00:20.055Z,17.50
2023-11-30T17:02:51.439Z,18.47
2023-11-30T17:05:19.998Z,17.93
2023-11-30T17:07:47.333Z,24.30
2023-11-30T17:10:17.573Z,26.63
2023-11-30T17:12:47.992Z,31.47
2023-11-30T17:15:19.452Z,31.13
2023-11-30T17:17:50.578Z,30.73
2023-11-30T17:20:21.148Z,43.63
2023-11-30T17:22:50.931Z,45.57
2023-11-30T17:25:19.986Z,53.93
2023-11-30T17:27:48.673Z,40.70
2023-11-30T17:30:17.991Z,30.53
2023-11-30T17:32:46.372Z,26.93
2023-11-30T17:35:15.536Z,27.27
2023-11-30T17:37:46.353Z,24.93
2023-11-30T17:40:14.189Z,26.30
2023-11-30T17:42:42.202Z,24.27
2023-11-30T17:45:11.374Z,24.83
2023-11-30T17:47:41.480Z,35.00
2023-11-30T17:50:14.123Z,36.63
2023-11-30T17:52:42.181Z,35.63
2023-11-30T17:55:10.094Z,28.63
2023-11-30T17:57:39.273Z,23.37
2023-11-30T18:00:07.976Z,35.07
2023-11-30T18:03:04.650Z,34.90
2023-11-30T18:05:33.808Z,39.73
2023-11-30T18:08:02.194Z,35.87
2023-11-30T18:10:35.341Z,37.50
2023-11-30T18:13:05.576Z,22.83
2023-11-30T18:15:35.592Z,42.20
2023-11-30T18:18:03.395Z,48.93
2023-11-30T18:20:34.358Z,57.63
2023-11-30T18:23:03.669Z,42.67
2023-11-30T18:25:32.624Z,40.33
2023-11-30T18:28:00.623Z,41.37
2023-11-30T18:30:31.662Z,38.63
2023-11-30T18:33:03.483Z,44.87
2023-11-30T18:35:34.730Z,43.37
2023-11-30T18:38:05.301Z,41.80
2023-11-30T18:40:35.583Z,43.70
2023-11-30T18:43:25.402Z,50.87
2023-11-30T18:45:59.143Z,61.80
2023-11-30T18:48:30.580Z,39.47
2023-11-30T18:51:01.210Z,43.67
2023-11-30T18:53:37.352Z,45.47
2023-11-30T18:56:06.049Z,44.70
2023-11-30T18:58:35.189Z,44.37
2023-11-30T19:01:04.555Z,44.50
2023-11-30T19:03:34.270Z,45.17
2023-11-30T19:06:03.835Z,42.97
2023-11-30T19:08:32.921Z,42.80
2023-11-30T19:11:03.012Z,43.83
2023-11-30T19:13:36.372Z,46.17
2023-11-30T19:16:05.996Z,49.00
2023-11-30T19:18:35.132Z,43.53
2023-11-30T19:21:06.482Z,45.03
2023-11-30T19:23:37.469Z,41.70
2023-11-30T19:26:13.826Z,40.77
2023-11-30T19:28:43.079Z,39.70
2023-11-30T19:31:11.780Z,45.00
2023-11-30T19:33:45.616Z,33.87
2023-11-30T19:36:17.881Z,39.03
2023-11-30T19:38:50.966Z,39.43
2023-11-30T19:41:24.389Z,40.77
2023-11-30T19:43:58.291Z,47.77
2023-11-30T19:46:30.755Z,55.20
2023-11-30T19:49:00.948Z,35.97
2023-11-30T19:51:34.060Z,35.73
2023-11-30T19:54:09.199Z,29.00
2023-11-30T19:56:46.198Z,42.77
2023-11-30T19:59:15.316Z,36.13
2023-11-30T20:01:45.026Z,32.47
2023-11-30T20:04:13.757Z,25.27
2023-11-30T20:06:45.045Z,26.70
2023-11-30T20:09:38.354Z,28.07
2023-11-30T20:12:13.060Z,27.87
2023-11-30T20:14:44.917Z,28.67
2023-11-30T20:17:13.597Z,29.50
2023-11-30T20:19:44.134Z,33.70
2023-11-30T20:22:12.962Z,34.83
2023-11-30T20:24:40.687Z,30.43
2023-11-30T20:27:09.401Z,29.33
2023-11-30T20:29:36.880Z,28.93
2023-11-30T20:32:04.935Z,31.83
2023-11-30T20:34:40.566Z,27.10
2023-11-30T20:37:09.159Z,23.70
2023-11-30T20:39:37.186Z,23.60
2023-11-30T20:42:08.739Z,21.83
2023-11-30T20:44:37.365Z,24.37
2023-11-30T20:47:05.918Z,23.03
2023-11-30T20:49:33.998Z,23.13
2023-11-30T20:52:04.325Z,15.10
2023-11-30T20:54:35.616Z,13.77
2023-11-30T20:57:03.511Z,14.40
2023-11-30T20:59:34.746Z,14.70
2023-11-30T21:02:02.548Z,15.03
2023-11-30T21:04:30.476Z,12.60
2023-11-30T21:07:03.969Z,13.03
2023-11-30T21:09:33.358Z,14.73
2023-11-30T21:12:04.187Z,18.17
2023-11-30T21:14:33.870Z,16.37
2023-11-30T21:17:06.997Z,16.70
2023-11-30T21:19:54.178Z,30.20
2023-11-30T21:22:21.468Z,20.37
2023-11-30T21:24:48.781Z,26.53
2023-11-30T21:27:20.441Z,32.90
2023-11-30T21:29:50.994Z,20.20
2023-11-30T21:32:18.384Z,19.73
2023-11-30T21:34:51.242Z,19.93
2023-11-30T21:37:18.710Z,22.40
2023-11-30T21:39:47.245Z,20.03
2023-11-30T21:42:15.724Z,16.43
2023-11-30T21:44:47.108Z,14.30
2023-11-30T21:47:14.418Z,14.60
2023-11-30T21:49:49.366Z,16.03
2023-11-30T21:52:20.936Z,16.27
2023-11-30T21:54:48.943Z,16.70
2023-11-30T21:57:19.034Z,21.57
2023-11-30T21:59:46.367Z,26.77
2023-11-30T22:02:13.653Z,23.43
2023-11-30T22:04:41.880Z,12.77
2023-11-30T22:07:09.448Z,13.23
2023-11-30T22:09:39.113Z,10.47
2023-11-30T22:12:08.145Z,11.40
2023-11-30T22:14:38.107Z,11.37
2023-11-30T22:17:05.833Z,12.50
2023-11-30T22:19:33.474Z,12.43
2023-11-30T22:22:01.692Z,12.57
2023-11-30T22:24:29.794Z,13.23
2023-11-30T22:26:57.507Z,12.43
2023-11-30T22:29:24.710Z,12.53
2023-11-30T22:31:54.307Z,12.93
2023-11-30T22:34:21.745Z,12.17
2023-11-30T22:36:49.401Z,12.03
2023-11-30T22:39:18.070Z,10.93
2023-11-30T22:41:46.454Z,11.17
2023-11-30T22:44:18.577Z,11.77
2023-11-30T22:46:47.062Z,13.27
2023-11-30T22:49:17.733Z,12.70
2023-11-30T22:51:54.195Z,16.77
2023-11-30T22:54:23.916Z,17.17
2023-11-30T22:56:57.972Z,16.20
2023-11-30T22:59:25.370Z,17.10
2023-11-30T23:01:55.167Z,14.30
2023-11-30T23:04:26.722Z,29.30
2023-11-30T23:06:54.573Z,27.97
2023-11-30T23:09:21.959Z,26.27
2023-11-30T23:11:49.226Z,15.70
2023-11-30T23:14:16.623Z,14.73
2023-11-30T23:16:44.759Z,13.63
2023-11-30T23:19:12.313Z,14.20
2023-11-30T23:21:40.702Z,12.57
2023-11-30T23:24:08.914Z,13.63
2023-11-30T23:26:37.641Z,12.00
2023-11-30T23:29:05.491Z,11.77
2023-11-30T23:31:34.438Z,13.30
2023-11-30T23:34:04.653Z,13.93
2023-11-30T23:36:32.322Z,12.97
2023-11-30T23:39:04.078Z,13.43
2023-11-30T23:41:32.803Z,13.30
2023-11-30T23:44:00.778Z,14.57
2023-11-30T23:46:30.425Z,13.23
2023-11-30T23:48:59.145Z,14.23
2023-11-30T23:51:26.462Z,13.37
2023-11-30T23:53:53.704Z,13.47
2023-11-30T23:56:20.845Z,13.73
2023-11-30T23:58:48.080Z,13.87
